sensor_id;sensor_type;location;lat;lon;timestamp;P1;durP1;ratioP1;P2;durP2;ratioP2
14350;SDS011;59223;54.276;10.194;2022-07-29T00:01:53;2.70;;;1.57;;
14350;SDS011;59223;54.276;10.194;2022-07-29T00:04:20;3.03;;;1.40;;
14350;SDS011;59223;54.276;10.194;2022-07-29T00:06:49;1.70;;;1.30;;
14350;SDS011;59223;54.276;10.194;2022-07-29T00:09:16;1.33;;;1.23;;
14350;SDS011;59223;54.276;10.194;2022-07-29T00:11:43;1.83;;;1.30;;
14350;SDS011;59223;54.276;10.194;2022-07-29T00:14:10;1.30;;;1.20;;
14350;SDS011;59223;54.276;10.194;2022-07-29T00:16:39;1.33;;;1.23;;
14350;SDS011;59223;54.276;10.194;2022-07-29T00:19:06;2.07;;;1.60;;
14350;SDS011;59223;54.276;10.194;2022-07-29T00:21:33;2.20;;;1.70;;
14350;SDS011;59223;54.276;10.194;2022-07-29T00:24:00;1.80;;;1.50;;
14350;SDS011;59223;54.276;10.194;2022-07-29T00:26:27;2.00;;;1.80;;
14350;SDS011;59223;54.276;10.194;2022-07-29T00:29:01;1.67;;;1.47;;
14350;SDS011;59223;54.276;10.194;2022-07-29T00:31:49;3.10;;;1.53;;
14350;SDS011;59223;54.276;10.194;2022-07-29T00:34:16;2.90;;;2.00;;
14350;SDS011;59223;54.276;10.194;2022-07-29T00:37:01;2.60;;;1.40;;
14350;SDS011;59223;54.276;10.194;2022-07-29T00:39:33;1.60;;;1.50;;
14350;SDS011;59223;54.276;10.194;2022-07-29T00:42:02;1.40;;;1.30;;
14350;SDS011;59223;54.276;10.194;2022-07-29T00:44:30;2.50;;;1.70;;
14350;SDS011;59223;54.276;10.194;2022-07-29T00:46:57;2.03;;;1.50;;
14350;SDS011;59223;54.276;10.194;2022-07-29T00:49:26;1.73;;;1.50;;
14350;SDS011;59223;54.276;10.194;2022-07-29T00:51:55;1.17;;;1.07;;
14350;SDS011;59223;54.276;10.194;2022-07-29T00:54:25;2.43;;;1.50;;
14350;SDS011;59223;54.276;10.194;2022-07-29T00:56:53;1.33;;;1.23;;
14350;SDS011;59223;54.276;10.194;2022-07-29T00:59:22;1.43;;;1.13;;
14350;SDS011;59223;54.276;10.194;2022-07-29T01:01:49;1.60;;;1.20;;
14350;SDS011;59223;54.276;10.194;2022-07-29T01:04:18;0.87;;;0.87;;
14350;SDS011;59223;54.276;10.194;2022-07-29T01:06:49;1.10;;;1.10;;
14350;SDS011;59223;54.276;10.194;2022-07-29T01:09:17;1.60;;;1.50;;
14350;SDS011;59223;54.276;10.194;2022-07-29T01:12:05;3.30;;;1.30;;
14350;SDS011;59223;54.276;10.194;2022-07-29T01:14:36;1.53;;;1.43;;
14350;SDS011;59223;54.276;10.194;2022-07-29T01:17:14;1.20;;;1.10;;
14350;SDS011;59223;54.276;10.194;2022-07-29T01:19:49;1.10;;;1.10;;
14350;SDS011;59223;54.276;10.194;2022-07-29T01:25:12;1.30;;;1.17;;
14350;SDS011;59223;54.276;10.194;2022-07-29T01:30:37;1.30;;;1.20;;
14350;SDS011;59223;54.276;10.194;2022-07-29T01:33:13;1.30;;;1.20;;
14350;SDS011;59223;54.276;10.194;2022-07-29T01:36:04;1.10;;;1.10;;
14350;SDS011;59223;54.276;10.194;2022-07-29T01:38:39;1.40;;;1.27;;
14350;SDS011;59223;54.276;10.194;2022-07-29T01:41:15;1.87;;;1.40;;
14350;SDS011;59223;54.276;10.194;2022-07-29T01:43:49;1.50;;;1.10;;
14350;SDS011;59223;54.276;10.194;2022-07-29T01:46:25;1.80;;;1.40;;
14350;SDS011;59223;54.276;10.194;2022-07-29T01:49:08;1.70;;;1.30;;
14350;SDS011;59223;54.276;10.194;2022-07-29T01:51:46;1.97;;;1.43;;
14350;SDS011;59223;54.276;10.194;2022-07-29T01:54:24;1.20;;;1.10;;
14350;SDS011;59223;54.276;10.194;2022-07-29T01:56:59;1.13;;;1.03;;
14350;SDS011;59223;54.276;10.194;2022-07-29T01:59:28;1.30;;;1.20;;
14350;SDS011;59223;54.276;10.194;2022-07-29T02:02:00;1.20;;;1.10;;
14350;SDS011;59223;54.276;10.194;2022-07-29T02:04:28;1.23;;;1.13;;
14350;SDS011;59223;54.276;10.194;2022-07-29T02:06:57;1.60;;;1.30;;
14350;SDS011;59223;54.276;10.194;2022-07-29T02:09:27;1.40;;;1.30;;
14350;SDS011;59223;54.276;10.194;2022-07-29T02:11:59;1.17;;;1.10;;
14350;SDS011;59223;54.276;10.194;2022-07-29T02:14:28;1.30;;;1.20;;
14350;SDS011;59223;54.276;10.194;2022-07-29T02:17:01;1.30;;;1.20;;
14350;SDS011;59223;54.276;10.194;2022-07-29T02:19:29;1.50;;;1.40;;
14350;SDS011;59223;54.276;10.194;2022-07-29T02:21:59;1.43;;;1.33;;
14350;SDS011;59223;54.276;10.194;2022-07-29T02:24:27;1.87;;;1.10;;
14350;SDS011;59223;54.276;10.194;2022-07-29T02:26:55;1.40;;;1.30;;
14350;SDS011;59223;54.276;10.194;2022-07-29T02:29:24;1.50;;;1.10;;
14350;SDS011;59223;54.276;10.194;2022-07-29T02:31:53;2.53;;;1.37;;
14350;SDS011;59223;54.276;10.194;2022-07-29T02:34:21;1.43;;;1.33;;
14350;SDS011;59223;54.276;10.194;2022-07-29T02:36:49;1.37;;;1.27;;
14350;SDS011;59223;54.276;10.194;2022-07-29T02:39:17;1.50;;;1.10;;
14350;SDS011;59223;54.276;10.194;2022-07-29T02:41:52;1.27;;;1.17;;
14350;SDS011;59223;54.276;10.194;2022-07-29T02:44:25;1.73;;;1.53;;
14350;SDS011;59223;54.276;10.194;2022-07-29T02:47:19;1.70;;;1.30;;
14350;SDS011;59223;54.276;10.194;2022-07-29T02:50:04;1.33;;;1.00;;
14350;SDS011;59223;54.276;10.194;2022-07-29T02:52:40;1.27;;;1.17;;
14350;SDS011;59223;54.276;10.194;2022-07-29T02:57:43;1.80;;;1.23;;
14350;SDS011;59223;54.276;10.194;2022-07-29T03:00:20;1.17;;;0.90;;
14350;SDS011;59223;54.276;10.194;2022-07-29T03:02:51;1.53;;;1.43;;
14350;SDS011;59223;54.276;10.194;2022-07-29T03:05:20;1.97;;;1.40;;
14350;SDS011;59223;54.276;10.194;2022-07-29T03:07:56;2.50;;;1.40;;
14350;SDS011;59223;54.276;10.194;2022-07-29T03:10:26;1.10;;;1.10;;
14350;SDS011;59223;54.276;10.194;2022-07-29T03:12:56;1.37;;;1.27;;
14350;SDS011;59223;54.276;10.194;2022-07-29T03:15:29;1.40;;;1.30;;
14350;SDS011;59223;54.276;10.194;2022-07-29T03:17:57;1.47;;;1.37;;
14350;SDS011;59223;54.276;10.194;2022-07-29T03:20:27;1.40;;;1.30;;
14350;SDS011;59223;54.276;10.194;2022-07-29T03:22:54;3.13;;;1.20;;
14350;SDS011;59223;54.276;10.194;2022-07-29T03:25:21;1.57;;;1.20;;
14350;SDS011;59223;54.276;10.194;2022-07-29T03:27:51;1.50;;;1.23;;
14350;SDS011;59223;54.276;10.194;2022-07-29T03:30:17;1.40;;;1.30;;
14350;SDS011;59223;54.276;10.194;2022-07-29T03:32:48;1.67;;;1.23;;
14350;SDS011;59223;54.276;10.194;2022-07-29T03:35:19;1.40;;;1.30;;
14350;SDS011;59223;54.276;10.194;2022-07-29T03:37:46;1.40;;;1.30;;
14350;SDS011;59223;54.276;10.194;2022-07-29T03:40:24;1.50;;;1.37;;
14350;SDS011;59223;54.276;10.194;2022-07-29T03:42:54;3.10;;;1.20;;
14350;SDS011;59223;54.276;10.194;2022-07-29T03:45:25;1.60;;;1.50;;
14350;SDS011;59223;54.276;10.194;2022-07-29T03:48:00;1.53;;;1.30;;
14350;SDS011;59223;54.276;10.194;2022-07-29T03:50:32;0.97;;;0.97;;
14350;SDS011;59223;54.276;10.194;2022-07-29T03:53:00;1.57;;;1.20;;
14350;SDS011;59223;54.276;10.194;2022-07-29T03:55:29;1.63;;;1.30;;
14350;SDS011;59223;54.276;10.194;2022-07-29T03:58:05;1.20;;;1.10;;
14350;SDS011;59223;54.276;10.194;2022-07-29T04:00:34;3.77;;;1.40;;
14350;SDS011;59223;54.276;10.194;2022-07-29T04:03:06;1.20;;;1.10;;
14350;SDS011;59223;54.276;10.194;2022-07-29T04:05:36;1.70;;;1.30;;
14350;SDS011;59223;54.276;10.194;2022-07-29T04:08:08;1.40;;;1.30;;
14350;SDS011;59223;54.276;10.194;2022-07-29T04:10:37;1.13;;;1.03;;
14350;SDS011;59223;54.276;10.194;2022-07-29T04:13:05;1.63;;;1.30;;
14350;SDS011;59223;54.276;10.194;2022-07-29T04:15:32;2.83;;;1.30;;
14350;SDS011;59223;54.276;10.194;2022-07-29T04:17:59;1.07;;;1.00;;
14350;SDS011;59223;54.276;10.194;2022-07-29T04:20:26;2.13;;;1.50;;
14350;SDS011;59223;54.276;10.194;2022-07-29T04:22:55;1.87;;;1.30;;
14350;SDS011;59223;54.276;10.194;2022-07-29T04:25:22;1.23;;;1.13;;
14350;SDS011;59223;54.276;10.194;2022-07-29T04:27:49;1.87;;;1.13;;
14350;SDS011;59223;54.276;10.194;2022-07-29T04:30:31;1.17;;;1.07;;
14350;SDS011;59223;54.276;10.194;2022-07-29T04:33:00;1.43;;;1.33;;
14350;SDS011;59223;54.276;10.194;2022-07-29T04:35:28;1.40;;;1.30;;
14350;SDS011;59223;54.276;10.194;2022-07-29T04:38:04;1.30;;;1.20;;
14350;SDS011;59223;54.276;10.194;2022-07-29T04:40:32;1.83;;;1.37;;
14350;SDS011;59223;54.276;10.194;2022-07-29T04:43:06;2.87;;;1.30;;
14350;SDS011;59223;54.276;10.194;2022-07-29T04:45:37;1.67;;;1.57;;
14350;SDS011;59223;54.276;10.194;2022-07-29T04:48:04;2.90;;;1.50;;
14350;SDS011;59223;54.276;10.194;2022-07-29T04:50:32;1.40;;;1.30;;
14350;SDS011;59223;54.276;10.194;2022-07-29T04:52:59;4.97;;;1.33;;
14350;SDS011;59223;54.276;10.194;2022-07-29T04:55:26;1.67;;;1.40;;
14350;SDS011;59223;54.276;10.194;2022-07-29T04:57:58;1.87;;;1.13;;
14350;SDS011;59223;54.276;10.194;2022-07-29T05:00:27;1.60;;;1.17;;
14350;SDS011;59223;54.276;10.194;2022-07-29T05:02:58;1.40;;;1.10;;
14350;SDS011;59223;54.276;10.194;2022-07-29T05:05:26;1.20;;;1.10;;
14350;SDS011;59223;54.276;10.194;2022-07-29T05:07:55;1.90;;;1.27;;
14350;SDS011;59223;54.276;10.194;2022-07-29T05:10:24;0.90;;;0.90;;
14350;SDS011;59223;54.276;10.194;2022-07-29T05:12:51;1.43;;;1.33;;
14350;SDS011;59223;54.276;10.194;2022-07-29T05:15:21;2.87;;;1.50;;
14350;SDS011;59223;54.276;10.194;2022-07-29T05:17:48;2.47;;;1.70;;
14350;SDS011;59223;54.276;10.194;2022-07-29T05:20:14;1.57;;;1.47;;
14350;SDS011;59223;54.276;10.194;2022-07-29T05:22:42;3.90;;;2.13;;
14350;SDS011;59223;54.276;10.194;2022-07-29T05:25:08;2.87;;;1.60;;
14350;SDS011;59223;54.276;10.194;2022-07-29T05:27:36;1.80;;;1.70;;
14350;SDS011;59223;54.276;10.194;2022-07-29T05:30:05;2.97;;;2.00;;
14350;SDS011;59223;54.276;10.194;2022-07-29T05:32:32;2.93;;;1.70;;
14350;SDS011;59223;54.276;10.194;2022-07-29T05:34:59;2.60;;;1.90;;
14350;SDS011;59223;54.276;10.194;2022-07-29T05:37:26;2.27;;;1.97;;
14350;SDS011;59223;54.276;10.194;2022-07-29T05:39:53;3.47;;;1.83;;
14350;SDS011;59223;54.276;10.194;2022-07-29T05:42:22;4.40;;;2.27;;
14350;SDS011;59223;54.276;10.194;2022-07-29T05:44:50;1.80;;;1.67;;
14350;SDS011;59223;54.276;10.194;2022-07-29T05:47:19;2.20;;;1.95;;
14350;SDS011;59223;54.276;10.194;2022-07-29T05:49:46;2.70;;;2.15;;
14350;SDS011;59223;54.276;10.194;2022-07-29T05:52:13;2.65;;;1.88;;
14350;SDS011;59223;54.276;10.194;2022-07-29T05:54:43;2.50;;;1.73;;
14350;SDS011;59223;54.276;10.194;2022-07-29T05:57:20;3.38;;;2.30;;
14350;SDS011;59223;54.276;10.194;2022-07-29T05:59:51;4.22;;;2.00;;
14350;SDS011;59223;54.276;10.194;2022-07-29T06:02:20;3.08;;;2.10;;
14350;SDS011;59223;54.276;10.194;2022-07-29T06:04:47;3.20;;;1.90;;
14350;SDS011;59223;54.276;10.194;2022-07-29T06:07:17;4.10;;;2.00;;
14350;SDS011;59223;54.276;10.194;2022-07-29T06:09:43;2.53;;;1.88;;
14350;SDS011;59223;54.276;10.194;2022-07-29T06:12:10;2.40;;;1.85;;
14350;SDS011;59223;54.276;10.194;2022-07-29T06:14:37;4.35;;;2.05;;
14350;SDS011;59223;54.276;10.194;2022-07-29T06:17:04;4.22;;;1.95;;
14350;SDS011;59223;54.276;10.194;2022-07-29T06:19:33;5.40;;;1.90;;
14350;SDS011;59223;54.276;10.194;2022-07-29T06:22:01;3.45;;;2.22;;
14350;SDS011;59223;54.276;10.194;2022-07-29T06:24:28;4.47;;;2.47;;
14350;SDS011;59223;54.276;10.194;2022-07-29T06:26:55;3.30;;;2.00;;
14350;SDS011;59223;54.276;10.194;2022-07-29T06:29:22;6.90;;;1.83;;
14350;SDS011;59223;54.276;10.194;2022-07-29T06:31:49;5.93;;;2.15;;
14350;SDS011;59223;54.276;10.194;2022-07-29T06:34:19;4.15;;;1.90;;
14350;SDS011;59223;54.276;10.194;2022-07-29T06:36:49;3.72;;;2.00;;
14350;SDS011;59223;54.276;10.194;2022-07-29T06:39:17;2.65;;;1.77;;
14350;SDS011;59223;54.276;10.194;2022-07-29T06:41:47;2.35;;;1.95;;
14350;SDS011;59223;54.276;10.194;2022-07-29T06:44:18;3.05;;;2.22;;
14350;SDS011;59223;54.276;10.194;2022-07-29T06:46:47;4.03;;;2.33;;
14350;SDS011;59223;54.276;10.194;2022-07-29T06:49:16;2.63;;;1.95;;
14350;SDS011;59223;54.276;10.194;2022-07-29T06:51:43;2.53;;;1.83;;
14350;SDS011;59223;54.276;10.194;2022-07-29T06:54:13;2.08;;;1.88;;
14350;SDS011;59223;54.276;10.194;2022-07-29T06:56:40;2.47;;;1.77;;
14350;SDS011;59223;54.276;10.194;2022-07-29T06:59:10;3.00;;;1.52;;
14350;SDS011;59223;54.276;10.194;2022-07-29T07:01:40;3.45;;;1.98;;
14350;SDS011;59223;54.276;10.194;2022-07-29T07:04:11;2.80;;;1.70;;
14350;SDS011;59223;54.276;10.194;2022-07-29T07:06:38;1.85;;;1.70;;
14350;SDS011;59223;54.276;10.194;2022-07-29T07:09:06;4.13;;;1.73;;
14350;SDS011;59223;54.276;10.194;2022-07-29T07:11:33;2.22;;;1.55;;
14350;SDS011;59223;54.276;10.194;2022-07-29T07:14:00;3.70;;;1.67;;
14350;SDS011;59223;54.276;10.194;2022-07-29T07:16:29;3.65;;;1.75;;
14350;SDS011;59223;54.276;10.194;2022-07-29T07:18:57;5.10;;;1.83;;
14350;SDS011;59223;54.276;10.194;2022-07-29T07:21:24;4.40;;;1.95;;
14350;SDS011;59223;54.276;10.194;2022-07-29T07:23:55;3.08;;;1.88;;
14350;SDS011;59223;54.276;10.194;2022-07-29T07:26:27;2.33;;;1.50;;
14350;SDS011;59223;54.276;10.194;2022-07-29T07:28:57;1.80;;;1.55;;
14350;SDS011;59223;54.276;10.194;2022-07-29T07:31:24;2.58;;;1.63;;
14350;SDS011;59223;54.276;10.194;2022-07-29T07:33:51;2.55;;;1.70;;
14350;SDS011;59223;54.276;10.194;2022-07-29T07:36:19;3.25;;;1.58;;
14350;SDS011;59223;54.276;10.194;2022-07-29T07:38:47;4.10;;;2.08;;
14350;SDS011;59223;54.276;10.194;2022-07-29T07:41:14;7.85;;;1.60;;
14350;SDS011;59223;54.276;10.194;2022-07-29T07:43:40;2.47;;;1.45;;
14350;SDS011;59223;54.276;10.194;2022-07-29T07:46:09;3.08;;;1.60;;
14350;SDS011;59223;54.276;10.194;2022-07-29T07:48:36;2.45;;;1.25;;
14350;SDS011;59223;54.276;10.194;2022-07-29T07:51:06;4.85;;;1.52;;
14350;SDS011;59223;54.276;10.194;2022-07-29T07:53:33;4.82;;;1.70;;
14350;SDS011;59223;54.276;10.194;2022-07-29T07:56:01;4.00;;;1.42;;
14350;SDS011;59223;54.276;10.194;2022-07-29T07:58:37;5.90;;;1.50;;
14350;SDS011;59223;54.276;10.194;2022-07-29T08:01:07;1.40;;;1.30;;
14350;SDS011;59223;54.276;10.194;2022-07-29T08:03:35;2.75;;;1.63;;
14350;SDS011;59223;54.276;10.194;2022-07-29T08:06:03;2.92;;;1.63;;
14350;SDS011;59223;54.276;10.194;2022-07-29T08:08:30;2.00;;;1.80;;
14350;SDS011;59223;54.276;10.194;2022-07-29T08:10:59;2.08;;;1.88;;
14350;SDS011;59223;54.276;10.194;2022-07-29T08:13:34;5.68;;;1.80;;
14350;SDS011;59223;54.276;10.194;2022-07-29T08:16:02;1.98;;;1.52;;
14350;SDS011;59223;54.276;10.194;2022-07-29T08:18:42;3.85;;;1.80;;
14350;SDS011;59223;54.276;10.194;2022-07-29T08:21:11;1.63;;;1.35;;
14350;SDS011;59223;54.276;10.194;2022-07-29T08:23:40;2.47;;;1.50;;
14350;SDS011;59223;54.276;10.194;2022-07-29T08:26:28;2.55;;;1.63;;
14350;SDS011;59223;54.276;10.194;2022-07-29T08:28:54;1.48;;;1.38;;
14350;SDS011;59223;54.276;10.194;2022-07-29T08:31:21;4.50;;;1.80;;
14350;SDS011;59223;54.276;10.194;2022-07-29T08:33:48;3.03;;;1.65;;
14350;SDS011;59223;54.276;10.194;2022-07-29T08:36:15;1.85;;;1.30;;
14350;SDS011;59223;54.276;10.194;2022-07-29T08:38:42;1.67;;;1.58;;
14350;SDS011;59223;54.276;10.194;2022-07-29T08:41:10;2.08;;;1.20;;
14350;SDS011;59223;54.276;10.194;2022-07-29T08:43:37;3.22;;;1.63;;
14350;SDS011;59223;54.276;10.194;2022-07-29T08:46:07;1.95;;;1.77;;
14350;SDS011;59223;54.276;10.194;2022-07-29T08:48:34;1.90;;;1.42;;
14350;SDS011;59223;54.276;10.194;2022-07-29T08:51:02;2.40;;;1.17;;
14350;SDS011;59223;54.276;10.194;2022-07-29T08:53:30;1.45;;;1.30;;
14350;SDS011;59223;54.276;10.194;2022-07-29T08:56:00;2.80;;;1.48;;
14350;SDS011;59223;54.276;10.194;2022-07-29T08:58:31;1.92;;;1.50;;
14350;SDS011;59223;54.276;10.194;2022-07-29T09:01:03;2.00;;;1.75;;
14350;SDS011;59223;54.276;10.194;2022-07-29T09:03:37;2.05;;;1.52;;
14350;SDS011;59223;54.276;10.194;2022-07-29T09:06:06;1.85;;;1.50;;
14350;SDS011;59223;54.276;10.194;2022-07-29T09:08:34;2.13;;;1.80;;
14350;SDS011;59223;54.276;10.194;2022-07-29T09:11:03;2.20;;;1.67;;
14350;SDS011;59223;54.276;10.194;2022-07-29T09:13:31;2.13;;;1.80;;
14350;SDS011;59223;54.276;10.194;2022-07-29T09:15:58;2.75;;;1.60;;
14350;SDS011;59223;54.276;10.194;2022-07-29T09:18:39;1.75;;;1.45;;
14350;SDS011;59223;54.276;10.194;2022-07-29T09:21:08;1.70;;;1.58;;
14350;SDS011;59223;54.276;10.194;2022-07-29T09:26:31;2.40;;;1.90;;
14350;SDS011;59223;54.276;10.194;2022-07-29T09:29:06;3.15;;;1.40;;
14350;SDS011;59223;54.276;10.194;2022-07-29T09:31:38;2.40;;;1.48;;
14350;SDS011;59223;54.276;10.194;2022-07-29T09:34:09;2.50;;;1.52;;
14350;SDS011;59223;54.276;10.194;2022-07-29T09:36:41;2.72;;;1.77;;
14350;SDS011;59223;54.276;10.194;2022-07-29T09:39:09;1.75;;;1.50;;
14350;SDS011;59223;54.276;10.194;2022-07-29T09:42:11;1.58;;;1.48;;
14350;SDS011;59223;54.276;10.194;2022-07-29T09:44:43;2.50;;;1.50;;
14350;SDS011;59223;54.276;10.194;2022-07-29T09:47:11;4.07;;;1.50;;
14350;SDS011;59223;54.276;10.194;2022-07-29T09:49:58;2.83;;;1.67;;
14350;SDS011;59223;54.276;10.194;2022-07-29T09:52:27;1.42;;;1.33;;
14350;SDS011;59223;54.276;10.194;2022-07-29T09:55:05;2.40;;;1.50;;
14350;SDS011;59223;54.276;10.194;2022-07-29T09:57:33;2.58;;;1.60;;
14350;SDS011;59223;54.276;10.194;2022-07-29T10:00:04;1.80;;;1.65;;
14350;SDS011;59223;54.276;10.194;2022-07-29T10:02:45;1.73;;;1.45;;
14350;SDS011;59223;54.276;10.194;2022-07-29T10:07:50;7.32;;;1.60;;
14350;SDS011;59223;54.276;10.194;2022-07-29T10:12:56;2.35;;;1.60;;
14350;SDS011;59223;54.276;10.194;2022-07-29T10:15:33;4.40;;;1.50;;
14350;SDS011;59223;54.276;10.194;2022-07-29T10:18:07;2.50;;;1.67;;
14350;SDS011;59223;54.276;10.194;2022-07-29T10:20:35;2.58;;;1.55;;
14350;SDS011;59223;54.276;10.194;2022-07-29T10:23:02;3.25;;;1.63;;
14350;SDS011;59223;54.276;10.194;2022-07-29T10:25:32;1.50;;;1.40;;
14350;SDS011;59223;54.276;10.194;2022-07-29T10:28:01;1.95;;;1.70;;
14350;SDS011;59223;54.276;10.194;2022-07-29T10:30:29;2.75;;;1.52;;
14350;SDS011;59223;54.276;10.194;2022-07-29T10:44:18;3.33;;;1.60;;
14350;SDS011;59223;54.276;10.194;2022-07-29T10:46:50;2.63;;;1.75;;
14350;SDS011;59223;54.276;10.194;2022-07-29T10:54:19;1.90;;;1.45;;
14350;SDS011;59223;54.276;10.194;2022-07-29T10:57:27;1.48;;;1.20;;
14350;SDS011;59223;54.276;10.194;2022-07-29T11:00:26;1.95;;;1.52;;
14350;SDS011;59223;54.276;10.194;2022-07-29T11:02:54;1.95;;;1.40;;
14350;SDS011;59223;54.276;10.194;2022-07-29T11:05:27;1.70;;;1.60;;
14350;SDS011;59223;54.276;10.194;2022-07-29T11:10:46;2.33;;;1.20;;
14350;SDS011;59223;54.276;10.194;2022-07-29T11:16:14;1.50;;;1.40;;
14350;SDS011;59223;54.276;10.194;2022-07-29T11:21:42;4.78;;;1.92;;
14350;SDS011;59223;54.276;10.194;2022-07-29T11:24:26;1.50;;;1.40;;
14350;SDS011;59223;54.276;10.194;2022-07-29T11:29:35;3.30;;;1.77;;
14350;SDS011;59223;54.276;10.194;2022-07-29T11:32:38;1.50;;;1.40;;
14350;SDS011;59223;54.276;10.194;2022-07-29T11:35:10;1.30;;;1.20;;
14350;SDS011;59223;54.276;10.194;2022-07-29T11:37:45;1.73;;;1.52;;
14350;SDS011;59223;54.276;10.194;2022-07-29T11:40:20;1.63;;;1.30;;
14350;SDS011;59223;54.276;10.194;2022-07-29T11:42:48;1.25;;;1.15;;
14350;SDS011;59223;54.276;10.194;2022-07-29T11:45:18;8.82;;;1.80;;
14350;SDS011;59223;54.276;10.194;2022-07-29T11:48:07;2.05;;;1.50;;
14350;SDS011;59223;54.276;10.194;2022-07-29T11:50:56;2.83;;;1.25;;
14350;SDS011;59223;54.276;10.194;2022-07-29T11:53:23;1.77;;;1.40;;
14350;SDS011;59223;54.276;10.194;2022-07-29T11:56:13;6.82;;;1.60;;
14350;SDS011;59223;54.276;10.194;2022-07-29T11:58:44;3.35;;;1.70;;
14350;SDS011;59223;54.276;10.194;2022-07-29T12:01:15;1.85;;;1.38;;
14350;SDS011;59223;54.276;10.194;2022-07-29T12:03:47;1.63;;;1.45;;
14350;SDS011;59223;54.276;10.194;2022-07-29T12:06:28;2.70;;;1.63;;
14350;SDS011;59223;54.276;10.194;2022-07-29T12:08:55;1.75;;;1.38;;
14350;SDS011;59223;54.276;10.194;2022-07-29T12:11:22;1.40;;;1.30;;
14350;SDS011;59223;54.276;10.194;2022-07-29T12:13:51;2.47;;;1.60;;
14350;SDS011;59223;54.276;10.194;2022-07-29T12:16:19;2.35;;;1.70;;
14350;SDS011;59223;54.276;10.194;2022-07-29T12:18:58;1.58;;;1.30;;
14350;SDS011;59223;54.276;10.194;2022-07-29T12:21:35;2.75;;;1.60;;
14350;SDS011;59223;54.276;10.194;2022-07-29T12:24:24;2.38;;;1.60;;
14350;SDS011;59223;54.276;10.194;2022-07-29T12:26:54;3.10;;;1.70;;
14350;SDS011;59223;54.276;10.194;2022-07-29T12:29:22;3.15;;;2.03;;
14350;SDS011;59223;54.276;10.194;2022-07-29T12:32:01;3.50;;;1.55;;
14350;SDS011;59223;54.276;10.194;2022-07-29T12:34:29;2.15;;;1.52;;
14350;SDS011;59223;54.276;10.194;2022-07-29T12:36:57;1.80;;;1.50;;
14350;SDS011;59223;54.276;10.194;2022-07-29T12:39:24;2.08;;;1.42;;
14350;SDS011;59223;54.276;10.194;2022-07-29T12:41:53;2.22;;;1.40;;
14350;SDS011;59223;54.276;10.194;2022-07-29T12:44:51;1.70;;;1.60;;
14350;SDS011;59223;54.276;10.194;2022-07-29T12:47:18;2.22;;;1.50;;
14350;SDS011;59223;54.276;10.194;2022-07-29T12:49:46;1.92;;;1.35;;
14350;SDS011;59223;54.276;10.194;2022-07-29T12:52:32;1.83;;;1.50;;
14350;SDS011;59223;54.276;10.194;2022-07-29T12:55:00;1.73;;;1.50;;
14350;SDS011;59223;54.276;10.194;2022-07-29T12:57:29;2.78;;;1.80;;
14350;SDS011;59223;54.276;10.194;2022-07-29T13:00:06;2.58;;;1.70;;
14350;SDS011;59223;54.276;10.194;2022-07-29T13:02:35;3.65;;;1.65;;
14350;SDS011;59223;54.276;10.194;2022-07-29T13:05:03;2.50;;;1.42;;
14350;SDS011;59223;54.276;10.194;2022-07-29T13:07:31;1.58;;;1.42;;
14350;SDS011;59223;54.276;10.194;2022-07-29T13:10:21;2.25;;;1.58;;
14350;SDS011;59223;54.276;10.194;2022-07-29T13:13:05;1.75;;;1.45;;
14350;SDS011;59223;54.276;10.194;2022-07-29T13:15:41;2.45;;;1.52;;
14350;SDS011;59223;54.276;10.194;2022-07-29T13:18:31;2.17;;;1.73;;
14350;SDS011;59223;54.276;10.194;2022-07-29T13:21:12;3.47;;;1.50;;
14350;SDS011;59223;54.276;10.194;2022-07-29T13:23:41;2.20;;;1.55;;
14350;SDS011;59223;54.276;10.194;2022-07-29T13:26:09;1.77;;;1.27;;
14350;SDS011;59223;54.276;10.194;2022-07-29T13:28:37;2.33;;;1.60;;
14350;SDS011;59223;54.276;10.194;2022-07-29T13:31:07;1.55;;;1.30;;
14350;SDS011;59223;54.276;10.194;2022-07-29T13:33:34;2.80;;;1.88;;
14350;SDS011;59223;54.276;10.194;2022-07-29T13:36:05;3.35;;;1.50;;
14350;SDS011;59223;54.276;10.194;2022-07-29T13:38:32;6.68;;;1.90;;
14350;SDS011;59223;54.276;10.194;2022-07-29T13:41:00;2.78;;;1.70;;
14350;SDS011;59223;54.276;10.194;2022-07-29T13:43:28;3.92;;;1.90;;
14350;SDS011;59223;54.276;10.194;2022-07-29T13:45:55;2.38;;;1.75;;
14350;SDS011;59223;54.276;10.194;2022-07-29T13:48:22;3.38;;;1.60;;
14350;SDS011;59223;54.276;10.194;2022-07-29T13:50:51;2.17;;;1.60;;
14350;SDS011;59223;54.276;10.194;2022-07-29T13:53:18;2.42;;;1.50;;
14350;SDS011;59223;54.276;10.194;2022-07-29T13:55:52;2.22;;;1.80;;
14350;SDS011;59223;54.276;10.194;2022-07-29T13:58:19;2.42;;;1.63;;
14350;SDS011;59223;54.276;10.194;2022-07-29T14:00:49;3.45;;;1.90;;
14350;SDS011;59223;54.276;10.194;2022-07-29T14:03:20;4.20;;;1.77;;
14350;SDS011;59223;54.276;10.194;2022-07-29T14:05:47;3.08;;;1.73;;
14350;SDS011;59223;54.276;10.194;2022-07-29T14:08:17;1.58;;;1.35;;
14350;SDS011;59223;54.276;10.194;2022-07-29T14:10:45;2.22;;;1.80;;
14350;SDS011;59223;54.276;10.194;2022-07-29T14:13:13;2.67;;;1.60;;
14350;SDS011;59223;54.276;10.194;2022-07-29T14:15:50;1.67;;;1.48;;
14350;SDS011;59223;54.276;10.194;2022-07-29T14:18:17;5.18;;;1.83;;
14350;SDS011;59223;54.276;10.194;2022-07-29T14:20:47;2.38;;;1.30;;
14350;SDS011;59223;54.276;10.194;2022-07-29T14:23:14;2.17;;;1.42;;
14350;SDS011;59223;54.276;10.194;2022-07-29T14:25:41;4.28;;;1.58;;
14350;SDS011;59223;54.276;10.194;2022-07-29T14:28:09;2.13;;;1.90;;
14350;SDS011;59223;54.276;10.194;2022-07-29T14:30:36;1.85;;;1.45;;
14350;SDS011;59223;54.276;10.194;2022-07-29T14:33:03;2.88;;;1.60;;
14350;SDS011;59223;54.276;10.194;2022-07-29T14:35:30;2.35;;;1.80;;
14350;SDS011;59223;54.276;10.194;2022-07-29T14:37:57;2.28;;;1.55;;
14350;SDS011;59223;54.276;10.194;2022-07-29T14:40:26;3.92;;;1.52;;
14350;SDS011;59223;54.276;10.194;2022-07-29T14:42:53;5.10;;;1.92;;
14350;SDS011;59223;54.276;10.194;2022-07-29T14:45:22;4.20;;;2.20;;
14350;SDS011;59223;54.276;10.194;2022-07-29T14:47:49;1.48;;;1.38;;
14350;SDS011;59223;54.276;10.194;2022-07-29T14:50:21;3.90;;;1.50;;
14350;SDS011;59223;54.276;10.194;2022-07-29T14:52:57;2.65;;;1.52;;
14350;SDS011;59223;54.276;10.194;2022-07-29T14:55:27;2.97;;;1.60;;
14350;SDS011;59223;54.276;10.194;2022-07-29T14:57:56;3.80;;;1.60;;
14350;SDS011;59223;54.276;10.194;2022-07-29T15:00:35;2.20;;;1.50;;
14350;SDS011;59223;54.276;10.194;2022-07-29T15:03:03;1.52;;;1.42;;
14350;SDS011;59223;54.276;10.194;2022-07-29T15:05:30;2.75;;;1.65;;
14350;SDS011;59223;54.276;10.194;2022-07-29T15:08:02;1.73;;;1.40;;
14350;SDS011;59223;54.276;10.194;2022-07-29T15:10:29;1.25;;;1.15;;
14350;SDS011;59223;54.276;10.194;2022-07-29T15:12:59;1.75;;;1.60;;
14350;SDS011;59223;54.276;10.194;2022-07-29T15:15:28;2.35;;;1.70;;
14350;SDS011;59223;54.276;10.194;2022-07-29T15:17:55;4.03;;;1.40;;
14350;SDS011;59223;54.276;10.194;2022-07-29T15:20:25;1.50;;;1.40;;
14350;SDS011;59223;54.276;10.194;2022-07-29T15:22:53;1.48;;;1.38;;
14350;SDS011;59223;54.276;10.194;2022-07-29T15:25:24;2.03;;;1.45;;
14350;SDS011;59223;54.276;10.194;2022-07-29T15:27:53;2.42;;;1.27;;
14350;SDS011;59223;54.276;10.194;2022-07-29T15:30:27;1.58;;;1.40;;
14350;SDS011;59223;54.276;10.194;2022-07-29T15:32:58;2.95;;;1.40;;
14350;SDS011;59223;54.276;10.194;2022-07-29T15:35:25;3.10;;;1.55;;
14350;SDS011;59223;54.276;10.194;2022-07-29T15:37:52;2.20;;;1.15;;
14350;SDS011;59223;54.276;10.194;2022-07-29T15:40:19;1.25;;;1.13;;